Time;durP1;ratioP1;P1;durP2;ratioP2;P2;SDS_P1;SDS_P2;PMS_P1;PMS_P2;Temp;Humidity;BMP_temperature;BMP_pressure;BME280_temperature;BME280_humidity;BME280_pressure;Samples;Min_cycle;Max_cycle;Signal;HPM_P1;HPM_P2
2022/06/02 00:02:30;;;;;;;0.70;0.70;;;16.90;38.60;16.30;98474.00;;;;5094683;28;20367;-74
2022/06/02 00:05:10;;;;;;;0.50;0.50;;;16.90;38.50;16.40;98468.00;;;;5094984;28;20217;-74
2022/06/02 00:07:59;;;;;;;0.80;0.80;;;16.80;38.80;16.40;98481.00;;;;5094725;28;20277;-73
2022/06/02 00:10:44;;;;;;;0.60;0.60;;;16.80;39.30;16.30;98485.00;;;;5094749;28;20191;-73
2022/06/02 00:13:24;;;;;;;0.57;0.57;;;16.80;38.80;16.30;98484.00;;;;5095102;28;20289;-76
2022/06/02 00:15:57;;;;;;;0.50;0.50;;;16.80;39.20;16.30;98455.00;;;;5101665;28;20198;-74
2022/06/02 00:18:34;;;;;;;0.60;0.60;;;16.80;39.30;16.40;98477.00;;;;5097946;28;20255;-74
2022/06/02 00:21:18;;;;;;;0.60;0.60;;;16.80;38.30;16.20;98480.00;;;;5094631;28;20248;-74
2022/06/02 00:23:58;;;;;;;0.70;0.70;;;16.80;39.30;16.20;98480.00;;;;5094555;28;20325;-74
2022/06/02 00:26:45;;;;;;;0.60;0.60;;;16.70;39.00;16.20;98467.00;;;;5094461;28;20533;-74
2022/06/02 00:29:30;;;;;;;0.50;0.50;;;16.70;38.60;16.20;98472.00;;;;5094541;28;20654;-74
2022/06/02 00:32:07;;;;;;;1.00;0.90;;;16.70;38.30;16.20;98478.00;;;;5094354;28;20214;-73
2022/06/02 00:34:43;;;;;;;0.93;0.93;;;16.70;39.00;16.20;98480.00;;;;5094627;28;20190;-73
2022/06/02 00:37:29;;;;;;;0.50;0.50;;;16.70;38.80;16.20;98478.00;;;;5094209;28;20240;-74
2022/06/02 00:39:58;;;;;;;0.70;0.70;;;16.70;39.20;16.20;98481.00;;;;5076528;28;20313;-74
2022/06/02 00:42:39;;;;;;;0.37;0.37;;;16.60;39.30;16.10;98481.00;;;;5094042;28;20268;-73
2022/06/02 00:45:13;;;;;;;0.50;0.50;;;16.60;39.70;16.10;98478.00;;;;5094401;28;20669;-74
2022/06/02 00:48:04;;;;;;;0.60;0.60;;;16.60;39.60;16.10;98473.00;;;;5094040;28;20214;-74
2022/06/02 00:50:55;;;;;;;0.60;0.60;;;16.60;40.00;16.00;98477.00;;;;5094032;28;20206;-74
2022/06/02 00:53:42;;;;;;;0.40;0.40;;;16.50;39.20;16.00;98475.00;;;;5094153;28;20253;-74
2022/06/02 00:59:35;;;;;;;0.57;0.57;;;16.50;40.10;16.10;98468.00;;;;5093727;28;20645;-73
2022/06/02 01:02:02;;;;;;;0.40;0.40;;;16.50;38.90;15.90;98472.00;;;;5094027;28;20696;-73
2022/06/02 01:04:34;;;;;;;0.50;0.50;;;16.40;39.20;15.90;98477.00;;;;5092588;28;20223;-73
2022/06/02 01:07:18;;;;;;;0.50;0.50;;;16.40;39.60;15.90;98471.00;;;;5093830;28;20214;-73
2022/06/02 01:10:34;;;;;;;0.60;0.60;;;16.40;39.60;15.80;98489.00;;;;5093752;28;20224;-73
2022/06/02 01:13:31;;;;;;;0.50;0.50;;;16.30;39.80;15.80;98487.00;;;;5088678;28;20232;-74
2022/06/02 01:16:11;;;;;;;0.33;0.33;;;16.30;39.90;15.80;98489.00;;;;5093619;28;20233;-74
2022/06/02 01:18:58;;;;;;;0.77;0.77;;;16.30;40.30;15.80;98499.00;;;;5093788;28;20281;-74
2022/06/02 01:22:04;;;;;;;0.80;0.80;;;16.30;40.40;15.60;98499.00;;;;5093527;28;20254;-74
2022/06/02 01:25:13;;;;;;;0.60;0.60;;;16.20;40.80;15.70;98490.00;;;;5093604;28;20271;-74
2022/06/02 01:28:18;;;;;;;0.50;0.50;;;16.20;40.80;15.50;98500.00;;;;5087415;28;20214;-73
2022/06/02 01:30:55;;;;;;;0.50;0.50;;;16.10;41.10;15.40;98493.00;;;;5092854;28;20210;-74
2022/06/02 01:33:39;;;;;;;1.10;1.00;;;16.00;41.40;15.40;98495.00;;;;5075501;28;20250;-73
2022/06/02 01:36:18;;;;;;;0.83;0.83;;;15.90;41.90;15.30;98500.00;;;;5093591;28;20255;-74
2022/06/02 01:39:05;;;;;;;0.50;0.50;;;15.90;42.30;15.30;98495.00;;;;5093313;28;20229;-73
2022/06/02 01:41:51;;;;;;;0.50;0.50;;;15.80;42.30;15.20;98495.00;;;;5093427;28;20202;-74
2022/06/02 01:44:31;;;;;;;0.57;0.57;;;15.80;42.50;15.30;98504.00;;;;5093297;28;20408;-74
2022/06/02 01:47:06;;;;;;;0.50;0.50;;;15.80;42.20;15.20;98496.00;;;;5093304;28;20194;-73
2022/06/02 01:49:52;;;;;;;0.50;0.50;;;15.80;42.10;15.20;98502.00;;;;5093227;28;20275;-74
2022/06/02 01:52:42;;;;;;;0.80;0.80;;;15.70;43.00;15.20;98507.00;;;;5093428;28;20286;-73
2022/06/02 01:55:30;;;;;;;0.60;0.60;;;15.70;43.20;15.20;98508.00;;;;5093042;28;20318;-73
2022/06/02 01:58:19;;;;;;;0.67;0.67;;;15.70;42.80;15.20;98509.00;;;;5093310;28;20221;-73
2022/06/02 02:00:59;;;;;;;0.60;0.60;;;15.70;42.80;15.20;98508.00;;;;5093126;28;20250;-73
2022/06/02 02:03:34;;;;;;;0.60;0.60;;;15.70;42.80;15.10;98522.00;;;;5093086;28;20220;-73
2022/06/02 02:06:13;;;;;;;0.73;0.73;;;15.70;44.40;15.10;98520.00;;;;5075293;28;20503;-74
2022/06/02 02:09:06;;;;;;;0.53;0.53;;;15.70;43.20;15.20;98524.00;;;;5093184;28;20237;-74
2022/06/02 02:11:48;;;;;;;0.80;0.80;;;15.70;44.10;15.20;98514.00;;;;5099695;28;20690;-74
2022/06/02 02:14:56;;;;;;;0.80;0.80;;;15.70;43.80;15.10;98519.00;;;;5093108;28;20233;-74
2022/06/02 02:17:57;;;;;;;0.50;0.50;;;15.70;44.00;15.10;98518.00;;;;5077848;28;20684;-73
2022/06/02 02:20:36;;;;;;;0.60;0.60;;;15.60;43.90;15.00;98520.00;;;;5096327;28;20243;-73
2022/06/02 02:23:13;;;;;;;0.63;0.63;;;15.60;44.30;15.00;98521.00;;;;5096480;28;20248;-73
2022/06/02 02:25:52;;;;;;;0.67;0.67;;;15.50;44.80;15.00;98517.00;;;;5096295;28;20289;-73
2022/06/02 02:28:32;;;;;;;0.70;0.70;;;15.50;45.60;15.00;98522.00;;;;5096241;28;20261;-73
2022/06/02 02:31:14;;;;;;;0.50;0.50;;;15.50;44.40;14.90;98527.00;;;;5096248;28;20205;-73
2022/06/02 02:33:55;;;;;;;0.60;0.60;;;15.50;44.50;15.00;98522.00;;;;5096110;28;20226;-73
2022/06/02 02:36:33;;;;;;;0.50;0.50;;;15.50;44.70;15.00;98529.00;;;;5096111;28;20355;-73
2022/06/02 02:39:07;;;;;;;0.57;0.57;;;15.50;44.40;14.90;98529.00;;;;5096159;28;20198;-73
2022/06/02 02:41:42;;;;;;;0.87;0.87;;;15.40;44.80;15.00;98528.00;;;;5096653;28;20214;-73
2022/06/02 02:44:20;;;;;;;0.80;0.80;;;15.50;44.80;14.90;98523.00;;;;5096203;28;20609;-73
2022/06/02 02:46:57;;;;;;;0.73;0.73;;;15.50;45.10;14.90;98518.00;;;;5096180;28;20226;-73
2022/06/02 02:49:35;;;;;;;1.10;1.10;;;15.40;45.10;14.90;98526.00;;;;5095963;28;20210;-73
2022/06/02 02:52:13;;;;;;;0.67;0.67;;;15.40;44.70;14.90;98522.00;;;;5095950;28;20308;-73
2022/06/02 02:54:47;;;;;;;0.57;0.57;;;15.40;45.20;14.90;98530.00;;;;5096002;28;20299;-75
2022/06/02 02:57:31;;;;;;;0.60;0.60;;;15.40;45.60;14.90;98530.00;;;;5094980;28;20658;-74
2022/06/02 03:00:07;;;;;;;0.60;0.60;;;15.40;45.80;14.90;98535.00;;;;5095776;28;20210;-72
2022/06/02 03:02:47;;;;;;;0.60;0.60;;;15.50;46.30;14.90;98528.00;;;;5095783;28;20293;-73
2022/06/02 03:05:25;;;;;;;1.63;0.80;;;15.50;45.40;14.90;98526.00;;;;5095937;28;20201;-73
2022/06/02 03:07:57;;;;;;;0.53;0.53;;;15.40;45.50;15.00;98528.00;;;;5095758;28;20249;-73
2022/06/02 03:10:36;;;;;;;0.60;0.60;;;15.50;45.60;14.90;98535.00;;;;5095668;28;20210;-73
2022/06/02 03:13:28;;;;;;;0.50;0.50;;;15.50;45.40;14.90;98522.00;;;;5095580;28;20222;-73
2022/06/02 03:16:00;;;;;;;0.50;0.50;;;15.40;45.40;14.80;98531.00;;;;5101890;28;20255;-73
2022/06/02 03:19:08;;;;;;;0.63;0.63;;;15.40;45.30;14.80;98531.00;;;;5098926;28;20194;-73
2022/06/02 03:21:50;;;;;;;0.50;0.50;;;15.40;45.60;14.80;98535.00;;;;5095589;28;20226;-73
2022/06/02 03:24:56;;;;;;;0.50;0.50;;;15.40;45.30;14.80;98540.00;;;;5095408;28;20279;-73
2022/06/02 03:27:47;;;;;;;0.70;0.70;;;15.30;45.70;14.90;98535.00;;;;5094441;28;20199;-72
2022/06/02 03:30:21;;;;;;;0.40;0.40;;;15.40;45.10;14.90;98536.00;;;;5095256;28;20622;-72
2022/06/02 03:33:11;;;;;;;0.80;0.80;;;15.40;45.40;14.90;98529.00;;;;5095211;28;20195;-72
2022/06/02 03:36:03;;;;;;;0.57;0.57;;;15.40;46.10;14.90;98525.00;;;;5095196;28;20222;-72
2022/06/02 03:38:59;;;;;;;0.60;0.60;;;15.40;46.60;14.70;98537.00;;;;5077286;28;20207;-73
2022/06/02 03:41:59;;;;;;;0.73;0.73;;;15.30;46.80;14.70;98548.00;;;;5077175;28;20371;-72
2022/06/02 03:44:49;;;;;;;0.70;0.70;;;15.30;46.90;14.60;98553.00;;;;5095166;28;20709;-72
2022/06/02 03:47:45;;;;;;;0.83;0.83;;;15.20;46.80;14.70;98547.00;;;;5094952;28;20222;-73
2022/06/02 03:50:52;;;;;;;0.50;0.50;;;15.30;46.60;14.80;98553.00;;;;5095011;28;20195;-72
2022/06/02 03:54:10;;;;;;;0.70;0.70;;;15.20;46.00;14.80;98542.00;;;;5092429;28;20253;-72
2022/06/02 03:57:04;;;;;;;0.50;0.50;;;15.30;46.00;14.60;98541.00;;;;5094804;28;20215;-72
2022/06/02 04:00:09;;;;;;;0.57;0.57;;;15.20;46.30;14.70;98550.00;;;;5094691;28;20234;-72
2022/06/02 04:02:46;;;;;;;0.60;0.60;;;15.30;47.10;14.60;98551.00;;;;5094792;28;20191;-72
2022/06/02 04:05:31;;;;;;;0.60;0.60;;;15.20;47.10;14.70;98552.00;;;;5076957;28;20218;-72
2022/06/02 04:08:17;;;;;;;0.70;0.70;;;15.20;47.50;14.60;98549.00;;;;5094718;28;20331;-71
2022/06/02 04:10:55;;;;;;;0.47;0.47;;;15.20;46.90;14.60;98546.00;;;;5094612;28;20655;-72
2022/06/02 04:13:42;;;;;;;0.47;0.47;;;15.20;47.70;14.50;98545.00;;;;5094659;28;20645;-72
2022/06/02 04:16:39;;;;;;;0.50;0.50;;;15.10;48.60;14.50;98564.00;;;;5094609;28;20269;-72
2022/06/02 04:23:06;;;;;;;1.23;1.10;;;15.10;49.10;14.50;98567.00;;;;5076383;28;20210;-72
2022/06/02 04:25:48;;;;;;;0.83;0.83;;;15.10;48.70;14.50;98562.00;;;;5094467;28;20593;-72
2022/06/02 04:28:30;;;;;;;0.60;0.60;;;15.00;47.90;14.50;98552.00;;;;5094317;28;20218;-72
2022/06/02 04:31:23;;;;;;;0.83;0.80;;;15.00;50.10;14.40;98559.00;;;;5094430;28;20278;-72
2022/06/02 04:33:58;;;;;;;0.93;0.93;;;15.00;49.70;14.40;98563.00;;;;5076550;28;20195;-72
2022/06/02 04:36:40;;;;;;;0.60;0.60;;;14.90;50.40;14.40;98568.00;;;;5094325;28;20226;-72
2022/06/02 04:39:18;;;;;;;0.50;0.50;;;14.90;50.40;14.40;98564.00;;;;5076130;28;20213;-72
2022/06/02 04:41:57;;;;;;;0.50;0.50;;;14.90;50.40;14.50;98574.00;;;;5094109;28;20253;-72
2022/06/02 04:44:35;;;;;;;0.73;0.73;;;15.00;50.20;14.50;98570.00;;;;5094109;28;20214;-73
2022/06/02 04:47:19;;;;;;;0.70;0.70;;;15.00;50.40;14.50;98570.00;;;;5094055;28;20206;-74
2022/06/02 04:50:04;;;;;;;0.50;0.50;;;15.00;50.80;14.60;98570.00;;;;5094067;28;20218;-74
2022/06/02 04:52:45;;;;;;;0.70;0.70;;;15.00;50.70;14.60;98561.00;;;;5076437;28;20206;-72
2022/06/02 04:55:24;;;;;;;0.80;0.80;;;15.10;50.50;14.60;98565.00;;;;5076138;28;20321;-72
2022/06/02 04:58:04;;;;;;;0.70;0.70;;;15.10;49.70;14.50;98572.00;;;;5094025;28;20194;-72
2022/06/02 05:00:42;;;;;;;0.70;0.70;;;15.10;50.40;14.60;98576.00;;;;5093842;28;20230;-75
2022/06/02 05:03:25;;;;;;;0.80;0.80;;;15.10;49.40;14.70;98579.00;;;;5076017;28;20210;-75
2022/06/02 05:06:06;;;;;;;0.53;0.53;;;15.20;50.00;14.80;98575.00;;;;5093711;28;20270;-75
2022/06/02 05:08:52;;;;;;;0.50;0.50;;;15.20;49.90;14.80;98575.00;;;;5093848;28;20202;-73
2022/06/02 05:11:37;;;;;;;0.70;0.70;;;15.30;50.30;14.90;98577.00;;;;5094055;28;20251;-75
2022/06/02 05:14:17;;;;;;;1.43;0.90;;;15.40;49.60;14.90;98577.00;;;;5093708;28;20654;-74
2022/06/02 05:17:02;;;;;;;0.73;0.73;;;15.40;49.40;15.00;98583.00;;;;5094418;28;20191;-74
2022/06/02 05:20:09;;;;;;;0.80;0.80;;;15.50;48.80;15.10;98590.00;;;;5099506;28;20646;-74
2022/06/02 05:23:32;;;;;;;0.60;0.60;;;15.50;48.10;15.30;98585.00;;;;5093716;28;20340;-75
2022/06/02 05:26:43;;;;;;;0.50;0.50;;;15.70;47.80;15.40;98591.00;;;;5012032;28;20260;-73
2022/06/02 05:29:48;;;;;;;0.53;0.53;;;15.80;46.60;15.30;98589.00;;;;5036081;28;20206;-74
2022/06/02 05:33:10;;;;;;;0.50;0.50;;;15.80;46.60;15.50;98592.00;;;;5093597;28;20317;-74
2022/06/02 05:36:22;;;;;;;0.53;0.53;;;15.90;46.00;15.40;98588.00;;;;5056032;28;20237;-72
2022/06/02 05:39:20;;;;;;;0.80;0.80;;;15.90;46.30;15.60;98594.00;;;;5090859;28;20259;-74
2022/06/02 05:42:06;;;;;;;0.70;0.70;;;16.00;46.00;15.70;98595.00;;;;5093434;28;20824;-75
2022/06/02 05:45:02;;;;;;;0.50;0.50;;;16.10;43.90;15.80;98599.00;;;;5093295;28;20301;-72
2022/06/02 05:47:50;;;;;;;0.60;0.60;;;16.20;45.30;15.90;98602.00;;;;5075488;28;20623;-74
2022/06/02 05:50:30;;;;;;;0.60;0.60;;;16.20;43.90;15.90;98607.00;;;;5093159;28;20201;-74
2022/06/02 05:53:14;;;;;;;0.80;0.80;;;16.30;44.00;15.90;98618.00;;;;5096992;28;20234;-73
2022/06/02 05:56:03;;;;;;;0.60;0.60;;;16.30;43.00;15.80;98614.00;;;;5096849;28;20234;-75
2022/06/02 05:59:01;;;;;;;0.50;0.50;;;16.30;43.80;15.90;98606.00;;;;5096732;28;20218;-74
2022/06/02 06:01:56;;;;;;;0.50;0.50;;;16.40;43.10;15.80;98611.00;;;;5096682;28;20218;-74
2022/06/02 06:05:03;;;;;;;0.60;0.60;;;16.30;41.50;15.80;98612.00;;;;5096641;28;20237;-72
2022/06/02 06:07:56;;;;;;;0.40;0.40;;;16.30;42.80;15.70;98589.00;;;;5079090;28;20209;-72
2022/06/02 06:10:38;;;;;;;0.60;0.60;;;16.20;43.00;15.70;98606.00;;;;5096550;28;20229;-72
2022/06/02 06:13:24;;;;;;;0.60;0.60;;;16.30;42.80;15.80;98604.00;;;;5096666;28;20308;-72
2022/06/02 06:16:04;;;;;;;0.67;0.67;;;16.30;43.00;15.70;98609.00;;;;5078587;28;20202;-73
2022/06/02 06:18:51;;;;;;;0.60;0.60;;;16.30;44.40;15.70;98624.00;;;;5078606;28;20241;-72
2022/06/02 06:21:38;;;;;;;1.50;1.13;;;16.30;43.50;16.00;98608.00;;;;5096516;28;20349;-74
2022/06/02 06:24:41;;;;;;;0.80;0.80;;;16.40;43.40;16.00;98607.00;;;;5096300;28;20222;-73
2022/06/02 06:27:18;;;;;;;0.50;0.50;;;16.40;41.70;15.90;98578.00;;;;5071737;28;20235;-74
2022/06/02 06:30:05;;;;;;;0.50;0.50;;;16.40;41.80;15.80;98616.00;;;;5078280;28;20622;-73
2022/06/02 06:32:40;;;;;;;0.80;0.80;;;16.30;42.50;15.90;98616.00;;;;5096540;28;20241;-74
2022/06/02 06:35:25;;;;;;;0.60;0.60;;;16.40;42.80;16.00;98619.00;;;;5078886;28;20553;-74
2022/06/02 06:38:23;;;;;;;0.67;0.67;;;16.50;42.60;16.20;98626.00;;;;5096258;28;20399;-73
2022/06/02 06:41:26;;;;;;;0.43;0.43;;;16.60;42.70;16.20;98623.00;;;;5096061;28;20649;-73
2022/06/02 06:44:17;;;;;;;0.50;0.50;;;16.70;41.00;16.10;98620.00;;;;5095985;28;20315;-73
2022/06/02 06:46:59;;;;;;;1.13;0.90;;;16.60;42.00;16.00;98619.00;;;;5076777;28;20210;-73
2022/06/02 06:49:50;;;;;;;0.97;0.97;;;16.60;41.40;16.20;98621.00;;;;5096042;28;20238;-74
2022/06/02 06:52:38;;;;;;;0.80;0.80;;;16.60;40.50;16.30;98617.00;;;;5096079;28;20662;-73
2022/06/02 06:55:22;;;;;;;0.60;0.60;;;16.70;40.30;16.30;98621.00;;;;5078055;28;20202;-73
2022/06/02 06:58:02;;;;;;;0.50;0.50;;;16.70;40.20;16.30;98619.00;;;;5096004;28;20206;-72
2022/06/02 07:00:36;;;;;;;0.50;0.50;;;16.70;39.50;16.30;98622.00;;;;5077915;28;20218;-72
2022/06/02 07:03:16;;;;;;;0.50;0.50;;;16.70;39.00;16.40;98618.00;;;;5077877;28;20645;-72
2022/06/02 07:05:49;;;;;;;0.63;0.63;;;16.80;39.20;16.40;98605.00;;;;5095759;28;20209;-71
2022/06/02 07:08:29;;;;;;;0.67;0.67;;;16.90;39.20;16.60;98619.00;;;;5095832;28;20218;-72
2022/06/02 07:11:07;;;;;;;0.73;0.73;;;17.00;38.20;16.60;98620.00;;;;5095674;28;20214;-73
2022/06/02 07:13:46;;;;;;;0.50;0.50;;;17.00;38.20;16.70;98629.00;;;;5095757;28;20207;-73
2022/06/02 07:16:25;;;;;;;0.60;0.60;;;17.00;37.90;16.60;98631.00;;;;5095764;28;20305;-74
2022/06/02 07:19:04;;;;;;;0.53;0.53;;;17.10;37.70;16.80;98607.00;;;;5095624;28;20281;-75
2022/06/02 07:21:39;;;;;;;0.63;0.63;;;17.10;37.40;16.70;98626.00;;;;5102587;28;20341;-75
2022/06/02 07:24:32;;;;;;;0.70;0.70;;;17.20;37.70;16.80;98621.00;;;;5095769;28;20190;-75
2022/06/02 07:27:11;;;;;;;1.03;1.03;;;17.20;38.10;16.80;98622.00;;;;5095486;28;20230;-75
2022/06/02 07:29:59;;;;;;;0.60;0.60;;;17.30;37.70;17.00;98621.00;;;;5095721;28;20210;-75
2022/06/02 07:33:06;;;;;;;0.67;0.67;;;17.30;37.30;17.00;98620.00;;;;5095461;28;20240;-74
2022/06/02 07:36:11;;;;;;;0.70;0.70;;;17.40;36.90;17.00;98625.00;;;;5094789;28;20213;-76
2022/06/02 07:39:22;;;;;;;1.57;1.47;;;17.50;37.00;17.10;98617.00;;;;5077743;28;20237;-76
2022/06/02 07:42:10;;;;;;;0.60;0.60;;;17.50;36.50;17.20;98617.00;;;;5061917;28;20322;-77
2022/06/02 07:44:59;;;;;;;0.70;0.70;;;17.50;37.00;17.20;98610.00;;;;5095332;28;20225;-75
2022/06/02 07:47:49;;;;;;;0.47;0.47;;;17.60;37.30;17.20;98621.00;;;;5077326;28;20221;-74
2022/06/02 07:50:23;;;;;;;0.50;0.50;;;17.70;36.90;17.30;98620.00;;;;5077553;28;20207;-74
2022/06/02 07:53:10;;;;;;;0.80;0.80;;;17.70;36.40;17.30;98623.00;;;;5094989;28;20249;-73
2022/06/02 07:55:52;;;;;;;1.10;1.07;;;17.80;37.10;17.50;98619.00;;;;5077352;28;20309;-74
2022/06/02 07:58:44;;;;;;;0.57;0.57;;;17.90;36.80;17.40;98616.00;;;;5094896;28;20205;-73
2022/06/02 08:01:49;;;;;;;0.60;0.60;;;17.90;36.30;17.60;98619.00;;;;5077084;28;20257;-72
2022/06/02 08:04:31;;;;;;;0.57;0.57;;;18.00;35.30;17.80;98624.00;;;;5094844;28;20285;-71
2022/06/02 08:07:09;;;;;;;0.57;0.57;;;18.10;35.10;17.70;98634.00;;;;5094649;28;20347;-73
2022/06/02 08:10:11;;;;;;;0.50;0.50;;;18.20;35.20;17.80;98623.00;;;;5077300;28;20202;-73
2022/06/02 08:12:49;;;;;;;0.50;0.50;;;18.20;35.00;17.80;98624.00;;;;5094655;28;20222;-73
2022/06/02 08:15:45;;;;;;;0.47;0.47;;;18.20;35.30;18.00;98632.00;;;;5094159;28;20213;-74
2022/06/02 08:18:54;;;;;;;0.70;0.70;;;18.40;34.50;18.00;98629.00;;;;5094714;28;20647;-74
2022/06/02 08:21:30;;;;;;;0.43;0.43;;;18.40;34.40;18.10;98631.00;;;;5090580;28;20241;-74
2022/06/02 08:24:30;;;;;;;0.40;0.40;;;18.50;35.10;18.10;98625.00;;;;5094803;28;20291;-74
2022/06/02 08:27:41;;;;;;;0.50;0.50;;;18.60;34.00;18.20;98627.00;;;;5094812;28;20266;-73
2022/06/02 08:30:17;;;;;;;0.50;0.50;;;18.70;33.90;18.40;98631.00;;;;5083560;28;20297;-74
2022/06/02 08:33:04;;;;;;;0.40;0.40;;;;;18.50;98624.00;;;;5094626;28;20234;-76
2022/06/02 08:35:38;;;;;;;0.60;0.60;;;;;18.50;98625.00;;;;5094431;28;20198;-74
2022/06/02 08:38:18;;;;;;;0.50;0.50;;;;;18.50;98628.00;;;;5094297;28;20246;-75
2022/06/02 08:41:29;;;;;;;0.70;0.70;;;;;18.60;98628.00;;;;5094353;28;20507;-72
2022/06/02 08:44:38;;;;;;;0.50;0.50;;;;;18.70;98624.00;;;;5076391;28;20576;-72
2022/06/02 08:47:44;;;;;;;0.47;0.47;;;;;18.70;98625.00;;;;5030275;28;20219;-72
2022/06/02 08:50:42;;;;;;;0.60;0.60;;;;;18.80;98632.00;;;;5094123;28;20203;-73
2022/06/02 08:53:55;;;;;;;0.40;0.40;;;;;19.00;98622.00;;;;5094474;28;20645;-73
2022/06/02 08:56:51;;;;;;;0.70;0.70;;;;;18.90;98623.00;;;;5041610;28;20234;-73
2022/06/02 08:59:44;;;;;;;0.43;0.43;;;;;19.10;98636.00;;;;5076476;28;20215;-72
2022/06/02 09:02:54;;;;;;;0.40;0.40;;;;;19.30;98633.00;;;;5094035;28;20198;-75
2022/06/02 09:06:18;;;;;;;17.93;1.00;;;;;19.30;98642.00;;;;5075985;28;20211;-74
2022/06/02 09:09:12;;;;;;;0.60;0.60;;;;;19.40;98641.00;;;;5094300;28;20202;-73
2022/06/02 09:11:56;;;;;;;0.43;0.43;;;;;19.40;98634.00;;;;5051445;28;20234;-73
2022/06/02 09:14:58;;;;;;;0.60;0.60;;;;;19.40;98627.00;;;;5093914;28;20206;-73
2022/06/02 09:17:35;;;;;;;0.40;0.40;;;;;19.50;98632.00;;;;5093818;28;20300;-73
2022/06/02 09:20:13;;;;;;;0.60;0.60;;;;;19.70;98619.00;;;;5093679;28;20194;-73
2022/06/02 09:23:11;;;;;;;0.50;0.50;;;;;20.00;98637.00;;;;5093848;28;20194;-74
2022/06/02 09:26:10;;;;;;;0.90;0.90;;;;;20.30;98630.00;;;;5092787;28;20231;-73
2022/06/02 09:29:01;;;;;;;0.50;0.50;;;;;20.40;98631.00;;;;5097420;28;20190;-73
2022/06/02 09:31:38;;;;;;;0.40;0.40;;;;;20.50;98625.00;;;;5097364;28;20625;-75
2022/06/02 09:34:22;;;;;;;0.80;0.80;;;;;20.60;98625.00;;;;5097361;28;20281;-73
2022/06/02 09:37:24;;;;;;;0.53;0.53;;;;;20.70;98626.00;;;;5097356;28;20597;-73
2022/06/02 09:40:11;;;;;;;0.40;0.40;;;;;20.80;98630.00;;;;5097121;28;20285;-74
2022/06/02 09:43:11;;;;;;;1.40;1.30;;;;;20.90;98625.00;;;;5097169;28;20187;-74
2022/06/02 09:45:49;;;;;;;0.50;0.50;;;;;21.20;98627.00;;;;5094538;28;20199;-73
2022/06/02 09:48:36;;;;;;;0.50;0.50;;;;;21.30;98628.00;;;;5097587;28;20403;-78
2022/06/02 09:51:33;;;;;;;0.73;0.73;;;;;21.20;98627.00;;;;5105350;28;20234;-74
2022/06/02 09:54:14;;;;;;;0.33;0.33;;;;;21.30;98628.00;;;;5095932;28;20214;-74
2022/06/02 09:57:55;;;;;;;0.50;0.50;;;;;21.40;98619.00;;;;5096765;28;20214;-73
2022/06/02 10:00:11;;;;;;;0.50;0.50;;;;;21.60;98626.00;;;;5096601;28;20569;-74
2022/06/02 10:02:52;;;;;;;0.70;0.70;;;;;21.80;98623.00;;;;5096747;28;20229;-76
2022/06/02 10:05:30;;;;;;;0.50;0.50;;;;;22.00;98624.00;;;;5096819;28;20255;-77
2022/06/02 10:08:09;;;;;;;0.50;0.50;;;;;22.00;98632.00;;;;5096676;28;20202;-77
2022/06/02 10:11:06;;;;;;;0.80;0.80;;;;;22.20;98629.00;;;;5096372;28;20256;-74
2022/06/02 10:14:16;;;;;;;0.47;0.47;;;;;22.30;98625.00;;;;5078424;28;20210;-74
2022/06/02 10:17:39;;;;;;;0.30;0.30;;;;;22.40;98626.00;;;;5096058;28;20214;-73
2022/06/02 10:20:30;;;;;;;0.88;0.88;;;;;22.60;98613.00;;;;5089019;28;20284;-74
2022/06/02 10:23:12;;;;;;;0.90;0.90;;;;;22.80;98615.00;;;;5096230;28;20215;-75
2022/06/02 10:26:06;;;;;;;0.47;0.47;;;;;22.60;98600.00;;;;5096097;28;20213;-75
2022/06/02 10:29:24;;;;;;;0.40;0.40;;;;;22.90;98611.00;;;;5078590;28;20513;-79
2022/06/02 10:32:21;;;;;;;0.50;0.50;;;;;23.00;98603.00;;;;5096228;28;20226;-78
2022/06/02 10:35:30;;;;;;;0.38;0.38;;;;;23.20;98601.00;;;;5096049;28;20219;-78
2022/06/02 10:38:25;;;;;;;0.90;0.90;;;;;23.10;98601.00;;;;5040970;28;20221;-77
2022/06/02 10:41:20;;;;;;;0.50;0.50;;;;;23.20;98602.00;;;;5095900;28;20222;-75
2022/06/02 10:44:06;;;;;;;0.65;0.65;;;;;23.30;98606.00;;;;5095870;28;20210;-75
2022/06/02 10:47:07;;;;;;;1.00;1.00;;;;;23.40;98609.00;;;;5095922;28;20179;-78
2022/06/02 10:49:53;;;;;;;0.40;0.40;;;;;23.30;98607.00;;;;5096061;28;20191;-75
2022/06/02 10:53:17;;;;;;;0.90;0.90;;;;;23.40;98603.00;;;;5095696;28;20206;-77
2022/06/02 10:56:19;;;;;;;0.43;0.43;;;;;23.40;98593.00;;;;5096023;28;20210;-76
2022/06/02 10:59:38;;;;;;;0.70;0.70;;;;;23.90;98597.00;;;;5095904;28;20252;-76
2022/06/02 11:02:49;;;;;;;0.40;0.40;;;;;23.90;98595.00;;;;5013989;28;20233;-75
2022/06/02 11:05:53;;;;;;;0.40;0.40;;;;;24.30;98590.00;;;;5014232;28;20556;-76
2022/06/02 11:09:22;;;;;;;0.60;0.60;;;;;24.20;98584.00;;;;5095665;28;20224;-75
2022/06/02 11:12:18;;;;;;;0.50;0.50;;;;;24.60;98582.00;;;;5095663;28;20225;-73
2022/06/02 11:15:30;;;;;;;0.70;0.70;;;;;24.20;98572.00;;;;5095657;28;20533;-75
2022/06/02 11:18:29;;;;;;;0.60;0.60;;;;;24.50;98576.00;;;;5078016;28;20226;-75
2022/06/02 11:21:41;;;;;;;0.90;0.90;;;;;24.70;98568.00;;;;5077632;28;20251;-74
2022/06/02 11:24:37;;;;;;;0.50;0.50;;;;;24.90;98575.00;;;;5013792;28;20251;-76
2022/06/02 11:27:44;;;;;;;0.60;0.60;;;;;25.10;98576.00;;;;5092416;28;20650;-73
2022/06/02 11:30:47;;;;;;;0.63;0.63;;;;;25.50;98570.00;;;;5048144;28;20233;-76
2022/06/02 11:33:37;;;;;;;0.57;0.57;;;;;25.60;98564.00;;;;5087740;28;20230;-76
2022/06/02 11:36:34;;;;;;;0.50;0.50;;;;;26.00;98563.00;;;;5095370;28;20182;-77
2022/06/02 11:39:26;;;;;;;0.55;0.55;;;;;26.00;98567.00;;;;5095367;28;20219;-76
2022/06/02 11:42:03;;;;;;;0.40;0.40;;;;;26.30;98561.00;;;;5095127;28;20246;-76
2022/06/02 11:44:37;;;;;;;0.93;0.93;;;;;26.50;98557.00;;;;5095338;28;20637;-75
2022/06/02 11:47:49;;;;;;;0.47;0.47;;;;;26.70;98549.00;;;;5095071;28;20217;-75
2022/06/02 11:50:51;;;;;;;0.40;0.40;;;;;27.00;98552.00;;;;5012773;28;20198;-76
2022/06/02 11:53:59;;;;;;;0.43;0.43;;;;;27.00;98542.00;;;;5094999;28;20560;-76
2022/06/02 11:56:41;;;;;;;0.50;0.50;;;;;27.10;98543.00;;;;5094740;28;20624;-76
2022/06/02 11:59:43;;;;;;;0.55;0.55;;;;;27.20;98539.00;;;;5094879;28;20301;-75
2022/06/02 12:02:34;;;;;;;0.60;0.60;;;;;27.30;98552.00;;;;5081959;28;20245;-76
2022/06/02 12:05:40;;;;;;;0.60;0.60;;;;;27.50;98539.00;;;;5098004;28;20238;-76
2022/06/02 12:08:43;;;;;;;0.60;0.60;;;;;27.40;98549.00;;;;5094957;28;20723;-75
2022/06/02 12:11:59;;;;;;;0.60;0.60;;;;;27.60;98552.00;;;;5077077;28;20234;-75
2022/06/02 12:14:43;;;;;;;0.60;0.60;;;;;27.30;98542.00;;;;5088370;28;20775;-76
2022/06/02 12:17:32;;;;;;;0.60;0.60;;;;;27.30;98543.00;;;;5094654;28;20209;-76
2022/06/02 12:20:27;;;;;;;1.83;0.60;;;;;27.60;98556.00;;;;5076783;28;20712;-76
2022/06/02 12:23:15;;;;;;;0.80;0.80;;;;;27.60;98562.00;;;;5094466;28;20337;-76
2022/06/02 12:25:59;;;;;;;0.50;0.50;;;;;27.80;98546.00;;;;5094478;28;20234;-74
2022/06/02 12:29:13;;;;;;;0.50;0.50;;;;;27.80;98541.00;;;;5094490;28;20275;-77
2022/06/02 12:32:10;;;;;;;0.55;0.55;;;;;27.90;98540.00;;;;5012719;28;20237;-77
2022/06/02 12:35:02;;;;;;;0.60;0.60;;;;;27.80;98538.00;;;;4996464;28;20247;-77
2022/06/02 12:38:19;;;;;;;0.60;0.60;;;;;27.80;98535.00;;;;5070772;28;20222;-78
2022/06/02 12:41:03;;;;;;;0.55;0.55;;;;;28.00;98536.00;;;;5094359;28;20546;-76
2022/06/02 12:44:05;;;;;;;0.63;0.63;;;;;27.90;98530.00;;;;5094432;28;20539;-76
2022/06/02 12:47:01;;;;;;;0.60;0.60;;;;;28.00;98537.00;;;;5094239;28;20301;-76
2022/06/02 12:50:02;;;;;;;2.40;1.15;;;;;28.00;98540.00;;;;5058049;28;20301;-76
2022/06/02 12:53:08;;;;;;;0.50;0.50;;;;;27.40;98536.00;;;;5085377;28;20210;-76
2022/06/02 12:56:03;;;;;;;0.70;0.70;;;;;27.40;98541.00;;;;5094281;28;20249;-76
2022/06/02 12:58:55;;;;;;;0.50;0.50;;;;;27.70;98521.00;;;;5093995;28;20301;-78
2022/06/02 13:01:48;;;;;;;0.80;0.80;;;;;27.90;98537.00;;;;5093747;28;20225;-78
2022/06/02 13:04:44;;;;;;;0.50;0.50;;;;;27.90;98545.00;;;;5093907;28;20214;-77
2022/06/02 13:08:02;;;;;;;0.40;0.40;;;;;28.10;98528.00;;;;5093866;28;20218;-78
2022/06/02 13:10:45;;;;;;;0.77;0.77;;;;;28.50;98537.00;;;;5012126;28;20217;-77
2022/06/02 13:13:50;;;;;;;0.60;0.60;;;;;28.30;98527.00;;;;5085251;28;20206;-76
2022/06/02 13:16:50;;;;;;;0.80;0.80;;;;;28.20;98536.00;;;;5093809;28;20214;-76